createdAt,value
2018-05-03T00:00:25.664Z,75.47
2018-05-03T00:01:25.665Z,76.62
2018-05-03T00:02:25.643Z,76.81
2018-05-03T00:03:25.638Z,77.13
2018-05-03T00:04:25.663Z,77.38
2018-05-03T00:05:25.619Z,77.38
2018-05-03T00:06:25.615Z,78.81
2018-05-03T00:07:25.603Z,80.62
2018-05-03T00:08:25.599Z,81.58
2018-05-03T00:09:25.601Z,83.39
2018-05-03T00:10:25.579Z,85.25
2018-05-03T00:11:25.571Z,86.59
2018-05-03T00:12:25.563Z,88.31
2018-05-03T00:13:25.554Z,89.45
2018-05-03T00:14:25.545Z,90.69
2018-05-03T00:15:25.538Z,91.36
2018-05-03T00:16:25.529Z,93.32
2018-05-03T00:17:25.520Z,94.27
2018-05-03T00:18:25.598Z,95.22
2018-05-03T00:19:25.504Z,96.46
2018-05-03T00:20:25.496Z,97.70
2018-05-03T00:21:25.493Z,98.27
2018-05-03T00:22:25.478Z,99.70
2018-05-03T00:23:25.471Z,99.22
2018-05-03T00:24:25.461Z,99.22
2018-05-03T00:25:25.453Z,99.60
2018-05-03T00:26:25.444Z,99.99
2018-05-03T00:27:25.436Z,99.99
2018-05-03T00:28:25.431Z,99.99
2018-05-03T00:29:25.422Z,99.99
2018-05-03T00:30:25.411Z,99.99
2018-05-03T00:31:25.402Z,99.99
2018-05-03T00:32:25.394Z,99.99
2018-05-03T00:33:25.385Z,99.99
2018-05-03T00:34:25.376Z,99.99
2018-05-03T00:35:25.367Z,99.99
2018-05-03T00:36:25.363Z,99.99
2018-05-03T00:37:25.350Z,99.99
2018-05-03T00:38:25.341Z,99.99
2018-05-03T00:39:25.347Z,99.51
2018-05-03T00:40:25.325Z,99.99
2018-05-03T00:41:25.317Z,99.99
2018-05-03T00:42:25.311Z,99.99
2018-05-03T00:43:25.300Z,99.99
2018-05-03T00:44:25.291Z,99.99
2018-05-03T00:45:25.282Z,99.22
2018-05-03T00:46:25.274Z,99.51
2018-05-03T00:47:25.266Z,99.41
2018-05-03T00:48:25.258Z,99.70
2018-05-03T00:49:25.251Z,99.22
2018-05-03T00:50:25.240Z,99.99
2018-05-03T00:51:25.232Z,99.99
2018-05-03T00:52:25.224Z,99.32
2018-05-03T00:53:25.215Z,98.75
2018-05-03T00:54:25.206Z,98.85
2018-05-03T00:55:25.198Z,98.65
2018-05-03T00:56:25.191Z,98.85
2018-05-03T00:57:25.181Z,98.94
2018-05-03T00:58:25.249Z,99.04
2018-05-03T00:59:25.165Z,98.94
2018-05-03T01:00:25.161Z,98.94
2018-05-03T01:01:25.151Z,98.79
2018-05-03T01:02:25.139Z,99.70
2018-05-03T01:03:25.131Z,99.80
2018-05-03T01:04:25.123Z,99.99
2018-05-03T01:05:25.115Z,99.60
2018-05-03T01:06:25.106Z,99.41
2018-05-03T01:07:25.098Z,99.60
2018-05-03T01:08:25.093Z,99.51
2018-05-03T01:09:25.083Z,99.89
2018-05-03T01:10:25.072Z,98.85
2018-05-03T01:11:25.064Z,99.41
2018-05-03T01:12:25.056Z,99.04
2018-05-03T01:13:25.047Z,99.04
2018-05-03T01:14:25.043Z,99.04
2018-05-03T01:15:25.031Z,99.32
2018-05-03T01:16:25.023Z,99.22
2018-05-03T01:17:25.014Z,99.13
2018-05-03T01:18:25.006Z,99.41
2018-05-03T01:19:25.074Z,99.99
2018-05-03T01:20:24.988Z,99.99
2018-05-03T01:21:24.981Z,99.99
2018-05-03T01:22:24.972Z,99.89
2018-05-03T01:23:24.964Z,99.41
2018-05-03T01:24:24.959Z,99.70
2018-05-03T01:25:24.947Z,99.70
2018-05-03T01:26:24.939Z,99.70
2018-05-03T01:27:24.930Z,99.22
2018-05-03T01:28:24.927Z,99.32
2018-05-03T01:29:24.914Z,99.51
2018-05-03T01:30:24.906Z,99.70
2018-05-03T01:31:24.898Z,99.41
2018-05-03T01:32:24.892Z,99.04
2018-05-03T01:33:24.881Z,98.94
2018-05-03T01:34:24.873Z,99.04
2018-05-03T01:35:24.865Z,98.65
2018-05-03T01:36:24.858Z,99.13
2018-05-03T01:37:24.853Z,99.41
2018-05-03T01:38:24.840Z,98.75
2018-05-03T01:39:24.835Z,98.94
2018-05-03T01:40:24.830Z,98.85
2018-05-03T01:41:24.816Z,98.75
2018-05-03T01:42:24.810Z,98.94
2018-05-03T01:43:24.805Z,98.56
2018-05-03T01:44:24.805Z,98.65
2018-05-03T01:45:24.783Z,98.65
2018-05-03T01:46:24.775Z,98.46
2018-05-03T01:47:24.768Z,97.80
2018-05-03T01:48:24.760Z,98.75
2018-05-03T01:49:24.750Z,98.27
2018-05-03T01:50:24.742Z,97.70
2018-05-03T01:51:24.739Z,96.94
2018-05-03T01:52:24.726Z,97.13
2018-05-03T01:53:24.718Z,97.13
2018-05-03T01:54:24.769Z,97.17
2018-05-03T01:55:24.702Z,96.70
2018-05-03T01:56:24.694Z,96.61
2018-05-03T01:57:24.685Z,96.13
2018-05-03T01:58:24.677Z,95.65
2018-05-03T01:59:24.669Z,96.03
2018-05-03T02:00:24.661Z,95.75
2018-05-03T02:01:24.652Z,95.94
2018-05-03T02:02:24.644Z,95.84
2018-05-03T02:03:24.636Z,95.84
2018-05-03T02:04:24.628Z,95.84
2018-05-03T02:05:24.619Z,95.94
2018-05-03T02:06:24.610Z,96.22
2018-05-03T02:07:24.603Z,96.32
2018-05-03T02:08:24.600Z,96.22
2018-05-03T02:09:24.586Z,96.61
2018-05-03T02:10:24.577Z,95.37
2018-05-03T02:11:24.569Z,96.32
2018-05-03T02:12:24.562Z,95.56
2018-05-03T02:13:24.558Z,95.56
2018-05-03T02:14:24.545Z,95.75
2018-05-03T02:15:24.536Z,96.41
2018-05-03T02:16:24.528Z,95.94
2018-05-03T02:17:24.519Z,96.22
2018-05-03T02:18:24.510Z,96.22
2018-05-03T02:19:24.503Z,96.61
2018-05-03T02:20:24.495Z,96.13
2018-05-03T02:21:24.486Z,95.27
2018-05-03T02:22:24.477Z,94.41
2018-05-03T02:23:24.470Z,93.84
2018-05-03T02:24:24.461Z,94.22
2018-05-03T02:25:24.452Z,94.17
2018-05-03T02:26:24.445Z,93.79
2018-05-03T02:27:24.436Z,93.32
2018-05-03T02:28:24.428Z,93.22
2018-05-03T02:29:24.419Z,93.22
2018-05-03T02:30:24.410Z,93.41
2018-05-03T02:31:24.402Z,92.55
2018-05-03T02:32:24.395Z,92.55
2018-05-03T02:33:24.387Z,92.65
2018-05-03T02:34:24.383Z,92.46
2018-05-03T02:35:24.369Z,92.74
2018-05-03T02:36:24.361Z,93.32
2018-05-03T02:37:24.356Z,92.65
2018-05-03T02:38:24.343Z,91.98
2018-05-03T02:39:24.336Z,92.36
2018-05-03T02:40:24.327Z,92.55
2018-05-03T02:41:24.318Z,92.84
2018-05-03T02:42:24.310Z,93.32
2018-05-03T02:43:24.300Z,93.22
2018-05-03T02:44:24.297Z,93.70
2018-05-03T02:45:24.285Z,92.93
2018-05-03T02:46:24.279Z,93.22
2018-05-03T02:47:24.266Z,92.93
2018-05-03T02:48:24.257Z,93.51
2018-05-03T02:49:24.250Z,93.32
2018-05-03T02:50:24.240Z,93.22
2018-05-03T02:51:24.231Z,93.41
2018-05-03T02:52:24.224Z,93.32
2018-05-03T02:53:24.213Z,92.93
2018-05-03T02:54:24.205Z,93.70
2018-05-03T02:55:24.196Z,93.79
2018-05-03T02:56:24.191Z,93.88
2018-05-03T02:57:24.178Z,93.88
2018-05-03T02:58:24.169Z,94.65
2018-05-03T02:59:24.162Z,94.17
2018-05-03T03:00:24.154Z,94.08
2018-05-03T03:01:24.144Z,94.74
2018-05-03T03:02:24.142Z,94.74
2018-05-03T03:03:24.127Z,94.08
2018-05-03T03:04:24.119Z,94.84
2018-05-03T03:05:24.113Z,94.08
2018-05-03T03:06:24.101Z,93.98
2018-05-03T03:07:24.093Z,93.74
2018-05-03T03:08:24.084Z,93.79
2018-05-03T03:09:24.075Z,94.37
2018-05-03T03:10:24.066Z,94.03
2018-05-03T03:11:24.058Z,93.84
2018-05-03T03:12:24.049Z,94.13
2018-05-03T03:13:24.040Z,93.79
2018-05-03T03:14:24.031Z,93.70
2018-05-03T03:15:24.023Z,93.22
2018-05-03T03:16:24.015Z,93.41
2018-05-03T03:17:24.004Z,94.08
2018-05-03T03:18:23.996Z,94.03
2018-05-03T03:19:23.988Z,94.51
2018-05-03T03:20:23.979Z,94.60
2018-05-03T03:21:23.969Z,94.79
2018-05-03T03:22:23.961Z,94.51
2018-05-03T03:23:23.952Z,94.60
2018-05-03T03:24:23.944Z,95.17
2018-05-03T03:25:23.934Z,95.27
2018-05-03T03:26:23.926Z,95.56
2018-05-03T03:27:23.917Z,96.12
2018-05-03T03:28:23.908Z,96.03
2018-05-03T03:29:23.901Z,95.75
2018-05-03T03:30:23.891Z,96.32
2018-05-03T03:31:23.882Z,96.12
2018-05-03T03:32:23.876Z,96.17
2018-05-03T03:33:23.863Z,96.17
2018-05-03T03:34:23.854Z,96.98
2018-05-03T03:35:23.846Z,96.80
2018-05-03T03:36:23.837Z,97.51
2018-05-03T03:37:23.833Z,97.65
2018-05-03T03:38:23.818Z,97.17
2018-05-03T03:39:23.809Z,97.36
2018-05-03T03:40:23.801Z,97.60
2018-05-03T03:41:23.791Z,96.60
2018-05-03T03:42:23.782Z,97.08
2018-05-03T03:43:23.773Z,97.65
2018-05-03T03:44:23.769Z,97.60
2018-05-03T03:45:23.754Z,97.46
2018-05-03T03:46:23.745Z,97.89
2018-05-03T03:47:23.737Z,97.94
2018-05-03T03:48:23.728Z,97.89
2018-05-03T03:49:23.718Z,97.99
2018-05-03T03:50:23.711Z,97.41
2018-05-03T03:51:23.701Z,97.60
2018-05-03T03:52:23.692Z,97.70
2018-05-03T03:53:23.682Z,97.89
2018-05-03T03:54:23.676Z,98.18
2018-05-03T03:55:23.665Z,98.18
2018-05-03T03:56:23.655Z,98.55
2018-05-03T03:57:23.646Z,98.36
2018-05-03T03:58:23.637Z,98.18
2018-05-03T03:59:23.632Z,98.36
2018-05-03T04:00:23.619Z,98.65
2018-05-03T04:01:23.612Z,98.65
2018-05-03T04:02:23.601Z,99.32
2018-05-03T04:03:23.591Z,99.03
2018-05-03T04:04:23.583Z,99.13
2018-05-03T04:05:23.579Z,98.84
2018-05-03T04:06:23.563Z,99.22
2018-05-03T04:07:23.558Z,99.79
2018-05-03T04:08:23.546Z,99.79
2018-05-03T04:09:23.535Z,99.99
2018-05-03T04:10:23.527Z,99.99
2018-05-03T04:11:23.517Z,99.99
2018-05-03T04:12:23.517Z,99.99
2018-05-03T04:13:23.502Z,99.99
2018-05-03T04:14:23.495Z,99.99
2018-05-03T04:15:23.480Z,99.99
2018-05-03T04:16:23.471Z,99.99
2018-05-03T04:17:23.462Z,99.99
2018-05-03T04:18:23.453Z,99.99
2018-05-03T04:19:23.443Z,99.99
2018-05-03T04:20:23.435Z,99.99
2018-05-03T04:21:23.424Z,99.99
2018-05-03T04:22:23.423Z,99.99
2018-05-03T04:23:23.408Z,99.99
2018-05-03T04:24:23.398Z,99.99
2018-05-03T04:25:23.387Z,99.99
2018-05-03T04:26:23.378Z,99.99
2018-05-03T04:27:23.369Z,99.99
2018-05-03T04:28:23.362Z,99.99
2018-05-03T04:29:23.350Z,99.99
2018-05-03T04:30:23.341Z,99.99
2018-05-03T04:31:23.333Z,99.99
2018-05-03T04:32:23.322Z,99.99
2018-05-03T04:33:23.313Z,99.99
2018-05-03T04:34:23.303Z,99.99
2018-05-03T04:35:23.295Z,99.99
2018-05-03T04:36:23.285Z,99.99
2018-05-03T04:37:23.274Z,99.99
2018-05-03T04:38:23.265Z,99.99
2018-05-03T04:39:23.256Z,99.99
2018-05-03T04:40:23.247Z,99.99
2018-05-03T04:41:23.237Z,99.99
2018-05-03T04:42:23.227Z,99.99
2018-05-03T04:43:23.218Z,99.99
2018-05-03T04:44:23.209Z,99.99
2018-05-03T04:45:23.199Z,99.99
2018-05-03T04:46:23.191Z,99.99
2018-05-03T04:47:23.182Z,99.99
2018-05-03T04:48:23.171Z,99.99
2018-05-03T04:49:23.162Z,99.99
2018-05-03T04:50:23.154Z,99.99
2018-05-03T04:51:23.143Z,99.99
2018-05-03T04:52:23.134Z,99.99
2018-05-03T04:53:23.123Z,99.99
2018-05-03T04:54:23.114Z,99.99
2018-05-03T04:55:23.108Z,99.99
2018-05-03T04:56:23.096Z,99.99
2018-05-03T04:57:23.086Z,99.99
2018-05-03T04:58:23.077Z,99.99
2018-05-03T04:59:23.072Z,99.99
2018-05-03T05:00:23.059Z,99.99
2018-05-03T05:01:23.050Z,99.99
2018-05-03T05:02:23.040Z,99.99
2018-05-03T05:03:23.031Z,99.99
2018-05-03T05:04:23.022Z,99.99
2018-05-03T05:05:23.012Z,99.99
2018-05-03T05:06:23.003Z,99.99
2018-05-03T05:07:22.998Z,99.99
2018-05-03T05:08:22.987Z,99.99
2018-05-03T05:09:22.975Z,99.99
2018-05-03T05:10:22.977Z,99.99
2018-05-03T05:11:22.957Z,99.99
2018-05-03T05:12:22.948Z,99.99
2018-05-03T05:13:22.938Z,99.99
2018-05-03T05:14:22.929Z,99.99
2018-05-03T05:15:22.920Z,99.99
2018-05-03T05:16:22.915Z,99.99
2018-05-03T05:17:22.901Z,99.99
2018-05-03T05:18:22.892Z,99.99
2018-05-03T05:19:22.883Z,99.99
2018-05-03T05:20:22.876Z,99.99
2018-05-03T05:21:22.865Z,99.99
2018-05-03T05:22:22.856Z,99.99
2018-05-03T05:23:22.851Z,99.99
2018-05-03T05:24:22.838Z,99.99
2018-05-03T05:25:22.828Z,99.99
2018-05-03T05:26:22.820Z,99.99
2018-05-03T05:27:22.811Z,99.99
2018-05-03T05:28:22.803Z,99.99
2018-05-03T05:29:22.793Z,99.99
2018-05-03T05:30:22.784Z,99.36
2018-05-03T05:31:22.775Z,99.46
2018-05-03T05:32:22.767Z,99.13
2018-05-03T05:33:22.757Z,98.36
2018-05-03T05:34:22.750Z,99.13
2018-05-03T05:35:22.740Z,99.03
2018-05-03T05:36:22.737Z,98.94
2018-05-03T05:37:22.722Z,97.89
2018-05-03T05:38:22.726Z,97.51
2018-05-03T05:39:22.705Z,98.18
2018-05-03T05:40:22.697Z,98.36
2018-05-03T05:41:22.690Z,98.55
2018-05-03T05:42:22.685Z,98.18
2018-05-03T05:43:22.670Z,98.27
2018-05-03T05:44:22.673Z,96.65
2018-05-03T05:45:22.652Z,97.22
2018-05-03T05:46:22.643Z,97.22
2018-05-03T05:47:22.636Z,97.60
2018-05-03T05:48:22.646Z,97.03
2018-05-03T05:49:22.617Z,96.46
2018-05-03T05:50:22.609Z,96.94
2018-05-03T05:51:22.620Z,96.55
2018-05-03T05:52:22.594Z,96.75
2018-05-03T05:53:22.584Z,96.17
2018-05-03T05:54:22.576Z,95.98
2018-05-03T05:55:22.570Z,95.56
2018-05-03T05:56:22.559Z,95.70
2018-05-03T05:57:22.550Z,95.75
2018-05-03T05:58:22.542Z,95.75
2018-05-03T05:59:22.534Z,94.84
2018-05-03T06:00:22.526Z,95.51
2018-05-03T06:01:22.516Z,95.36
2018-05-03T06:02:22.510Z,95.32
2018-05-03T06:03:22.501Z,95.08
2018-05-03T06:04:22.523Z,95.36
2018-05-03T06:05:22.484Z,94.60
2018-05-03T06:06:22.479Z,94.70
2018-05-03T06:07:22.468Z,92.69
2018-05-03T06:08:22.470Z,92.89
2018-05-03T06:09:22.451Z,93.84
2018-05-03T06:10:22.504Z,93.55
2018-05-03T06:11:22.435Z,93.84
2018-05-03T06:12:22.440Z,93.08
2018-05-03T06:13:22.423Z,93.37
2018-05-03T06:14:22.413Z,92.60
2018-05-03T06:15:22.403Z,93.17
2018-05-03T06:16:22.395Z,92.41
2018-05-03T06:17:22.386Z,92.32
2018-05-03T06:18:22.378Z,92.60
2018-05-03T06:19:22.371Z,92.60
2018-05-03T06:20:22.363Z,92.69
2018-05-03T06:21:22.355Z,91.36
2018-05-03T06:22:22.347Z,91.08
2018-05-03T06:23:22.340Z,91.08
2018-05-03T06:24:22.331Z,91.27
2018-05-03T06:25:22.324Z,90.31
2018-05-03T06:26:22.315Z,90.98
2018-05-03T06:27:22.309Z,90.41
2018-05-03T06:28:22.300Z,90.03
2018-05-03T06:29:22.293Z,90.41
2018-05-03T06:30:22.286Z,90.12
2018-05-03T06:31:22.361Z,90.55
2018-05-03T06:32:22.269Z,89.69
2018-05-03T06:33:22.261Z,88.93
2018-05-03T06:34:22.253Z,89.31
2018-05-03T06:35:22.246Z,88.64
2018-05-03T06:36:22.238Z,89.40
2018-05-03T06:37:22.231Z,86.83
2018-05-03T06:38:22.223Z,86.55
2018-05-03T06:39:22.216Z,86.07
2018-05-03T06:40:22.210Z,86.65
2018-05-03T06:41:22.200Z,86.78
2018-05-03T06:42:22.197Z,85.83
2018-05-03T06:43:22.188Z,84.88
2018-05-03T06:44:22.180Z,84.78
2018-05-03T06:45:22.228Z,85.45
2018-05-03T06:46:22.165Z,84.20
2018-05-03T06:47:22.161Z,84.78
2018-05-03T06:48:22.151Z,83.83
2018-05-03T06:49:22.144Z,84.55
2018-05-03T06:50:22.137Z,83.69
2018-05-03T06:51:22.130Z,83.12
2018-05-03T06:52:22.123Z,83.78
2018-05-03T06:53:22.171Z,84.16
2018-05-03T06:54:22.111Z,84.36
2018-05-03T06:55:22.101Z,83.31
2018-05-03T06:56:22.094Z,82.97
2018-05-03T06:57:22.086Z,82.49
2018-05-03T06:58:22.080Z,82.68
2018-05-03T06:59:22.073Z,82.11
2018-05-03T07:00:22.066Z,82.40
2018-05-03T07:01:22.058Z,81.63
2018-05-03T07:02:22.052Z,81.15
2018-05-03T07:03:22.045Z,81.06
2018-05-03T07:04:22.150Z,80.96
2018-05-03T07:05:22.032Z,81.54
2018-05-03T07:06:22.025Z,81.63
2018-05-03T07:07:22.020Z,82.30
2018-05-03T07:08:22.014Z,81.35
2018-05-03T07:09:22.008Z,80.58
2018-05-03T07:10:22.002Z,77.82
2018-05-03T07:11:21.998Z,78.23
2018-05-03T07:12:21.997Z,79.48
2018-05-03T07:13:21.988Z,78.91
2018-05-03T07:14:21.986Z,78.62
2018-05-03T07:15:21.983Z,79.61
2018-05-03T07:16:22.061Z,78.28
2018-05-03T07:17:21.975Z,77.89
2018-05-03T07:18:21.974Z,76.65
2018-05-03T07:19:21.972Z,76.37
2018-05-03T07:20:21.974Z,77.03
2018-05-03T07:21:21.969Z,76.88
2018-05-03T07:22:21.966Z,76.60
2018-05-03T07:23:21.964Z,75.26
2018-05-03T07:24:21.963Z,73.54
2018-05-03T07:25:21.971Z,72.81
2018-05-03T07:26:21.961Z,72.53
2018-05-03T07:27:21.963Z,73.10
2018-05-03T07:28:21.960Z,73.29
2018-05-03T07:29:22.043Z,72.33
2018-05-03T07:30:21.959Z,71.42
2018-05-03T07:31:21.960Z,71.13
2018-05-03T07:32:21.961Z,70.84
2018-05-03T07:33:21.961Z,69.98
2018-05-03T07:34:21.961Z,70.17
2018-05-03T07:35:21.962Z,68.74
2018-05-03T07:36:21.964Z,68.55
2018-05-03T07:37:21.963Z,68.64
2018-05-03T07:38:21.971Z,69.02
2018-05-03T07:39:21.967Z,69.31
2018-05-03T07:40:21.969Z,68.35
2018-05-03T07:41:21.970Z,66.92
2018-05-03T07:42:21.976Z,66.63
2018-05-03T07:43:21.973Z,67.30
2018-05-03T07:44:21.974Z,67.21
2018-05-03T07:45:21.977Z,66.54
2018-05-03T07:46:21.979Z,67.02
2018-05-03T07:47:21.981Z,68.45
2018-05-03T07:48:21.984Z,68.01
2018-05-03T07:49:21.986Z,66.47
2018-05-03T07:50:21.993Z,65.81
2018-05-03T07:51:21.993Z,65.71
2018-05-03T07:52:22.000Z,66.22
2018-05-03T07:53:21.999Z,65.45
2018-05-03T07:54:22.003Z,64.02
2018-05-03T07:55:22.008Z,65.17
2018-05-03T07:56:22.012Z,64.88
2018-05-03T07:57:22.015Z,65.84
2018-05-03T07:58:22.030Z,64.88
2018-05-03T07:59:22.024Z,65.17
2018-05-03T08:00:22.029Z,64.40
2018-05-03T08:01:22.033Z,62.87
2018-05-03T08:02:22.036Z,63.26
2018-05-03T08:03:22.040Z,63.93
2018-05-03T08:04:22.044Z,62.87
2018-05-03T08:05:22.047Z,61.37
2018-05-03T08:06:22.051Z,62.14
2018-05-03T08:07:22.060Z,60.06
2018-05-03T08:08:22.061Z,60.70
2018-05-03T08:09:22.065Z,59.27
2018-05-03T08:10:22.070Z,58.98
2018-05-03T08:11:22.076Z,60.73
2018-05-03T08:12:22.081Z,59.39
2018-05-03T08:13:22.085Z,57.76
2018-05-03T08:14:22.090Z,57.19
2018-05-03T08:15:22.096Z,57.73
2018-05-03T08:16:22.101Z,59.05
2018-05-03T08:17:22.115Z,59.05
2018-05-03T08:18:22.111Z,58.18
2018-05-03T08:19:22.116Z,60.48
2018-05-03T08:20:22.121Z,61.08
2018-05-03T08:21:22.125Z,59.84
2018-05-03T08:22:22.136Z,59.77
2018-05-03T08:23:22.138Z,58.44
2018-05-03T08:24:22.143Z,59.01
2018-05-03T08:25:22.148Z,58.53
2018-05-03T08:26:22.154Z,58.24
2018-05-03T08:27:22.160Z,56.90
2018-05-03T08:28:22.167Z,56.42
2018-05-03T08:29:22.171Z,56.99
2018-05-03T08:30:22.178Z,57.86
2018-05-03T08:31:22.185Z,56.04
2018-05-03T08:32:22.192Z,55.53
2018-05-03T08:33:22.194Z,56.30
2018-05-03T08:34:22.199Z,57.92
2018-05-03T08:35:22.205Z,59.36
2018-05-03T08:36:22.210Z,57.92
2018-05-03T08:37:22.271Z,58.88
2018-05-03T08:38:22.219Z,59.14
2018-05-03T08:39:22.224Z,60.10
2018-05-03T08:40:22.229Z,58.79
2018-05-03T08:41:22.279Z,58.88
2018-05-03T08:42:22.238Z,59.08
2018-05-03T08:43:22.242Z,57.99
2018-05-03T08:44:22.246Z,57.51
2018-05-03T08:45:22.249Z,58.88
2018-05-03T08:46:22.260Z,59.84
2018-05-03T08:47:22.269Z,58.05
2018-05-03T08:48:22.265Z,56.23
2018-05-03T08:49:22.278Z,55.36
2018-05-03T08:50:22.274Z,54.77
2018-05-03T08:51:22.280Z,53.42
2018-05-03T08:52:22.285Z,57.86
2018-05-03T08:53:22.290Z,58.05
2018-05-03T08:54:22.295Z,54.50
2018-05-03T08:55:22.301Z,54.24
2018-05-03T08:56:22.311Z,53.00
2018-05-03T08:57:22.312Z,54.91
2018-05-03T08:58:22.321Z,54.46
2018-05-03T08:59:22.325Z,51.81
2018-05-03T09:00:22.333Z,50.84
2018-05-03T09:01:22.379Z,51.81
2018-05-03T09:02:22.350Z,52.09
2018-05-03T09:03:22.355Z,52.38
2018-05-03T09:04:22.364Z,50.56
2018-05-03T09:05:22.370Z,49.29
2018-05-03T09:06:22.379Z,52.26
2018-05-03T09:07:22.387Z,54.01
2018-05-03T09:08:22.396Z,53.46
2018-05-03T09:09:22.404Z,53.49
2018-05-03T09:10:22.413Z,50.99
2018-05-03T09:11:22.423Z,49.55
2018-05-03T09:12:22.432Z,49.17
2018-05-03T09:13:22.441Z,49.96
2018-05-03T09:14:22.453Z,47.17
2018-05-03T09:15:22.462Z,46.19
2018-05-03T09:16:22.472Z,46.45
2018-05-03T09:17:22.481Z,48.38
2018-05-03T09:18:22.492Z,46.05
2018-05-03T09:19:22.505Z,47.08
2018-05-03T09:20:22.512Z,48.52
2018-05-03T09:21:22.521Z,50.05
2018-05-03T09:22:22.574Z,49.98
2018-05-03T09:23:22.540Z,48.44
2018-05-03T09:24:22.550Z,47.58
2018-05-03T09:25:22.559Z,47.51
2018-05-03T09:26:22.570Z,47.51
2018-05-03T09:27:22.579Z,48.02
2018-05-03T09:28:22.589Z,46.86
2018-05-03T09:29:22.598Z,45.81
2018-05-03T09:30:22.609Z,47.80
2018-05-03T09:31:22.619Z,48.11
2018-05-03T09:32:22.629Z,48.33
2018-05-03T09:33:22.640Z,45.90
2018-05-03T09:34:22.653Z,46.38
2018-05-03T09:35:22.659Z,45.81
2018-05-03T09:36:22.668Z,47.44
2018-05-03T09:37:22.678Z,50.03
2018-05-03T09:38:22.689Z,48.23
2018-05-03T09:39:22.698Z,47.58
2018-05-03T09:40:22.709Z,46.91
2018-05-03T09:41:22.718Z,45.87
2018-05-03T09:42:22.844Z,44.12
2018-05-03T09:43:22.739Z,45.97
2018-05-03T09:44:22.759Z,44.53
2018-05-03T09:45:22.761Z,43.45
2018-05-03T09:46:22.770Z,44.10
2018-05-03T09:47:22.781Z,46.12
2018-05-03T09:48:22.789Z,47.56
2018-05-03T09:49:22.798Z,48.52
2018-05-03T09:50:22.808Z,46.89
2018-05-03T09:51:22.818Z,44.48
2018-05-03T09:52:22.918Z,44.48
2018-05-03T09:53:22.838Z,45.81
2018-05-03T09:54:22.847Z,45.04
2018-05-03T09:55:22.929Z,46.38
2018-05-03T09:56:22.867Z,45.78
2018-05-03T09:57:22.876Z,45.40
2018-05-03T09:58:22.884Z,47.22
2018-05-03T09:59:22.949Z,48.57
2018-05-03T10:00:22.903Z,45.78
2018-05-03T10:01:22.911Z,46.58
2018-05-03T10:02:22.926Z,48.11
2018-05-03T10:03:22.935Z,44.37
2018-05-03T10:04:22.941Z,44.08
2018-05-03T10:05:22.952Z,45.54
2018-05-03T10:06:22.960Z,44.75
2018-05-03T10:07:22.969Z,43.40
2018-05-03T10:08:22.979Z,42.47
2018-05-03T10:09:22.992Z,43.62
2018-05-03T10:10:22.998Z,44.60
2018-05-03T10:11:23.008Z,42.68
2018-05-03T10:12:23.018Z,44.58
2018-05-03T10:13:23.136Z,45.45
2018-05-03T10:14:23.044Z,46.02
2018-05-03T10:15:23.046Z,45.37
2018-05-03T10:16:23.056Z,43.54
2018-05-03T10:17:23.066Z,43.91
2018-05-03T10:18:23.074Z,45.25
2018-05-03T10:19:23.084Z,45.08
2018-05-03T10:20:23.095Z,42.56
2018-05-03T10:21:23.101Z,46.23
2018-05-03T10:22:23.110Z,43.64
2018-05-03T10:23:23.120Z,42.58
2018-05-03T10:24:23.128Z,44.60
2018-05-03T10:25:23.136Z,44.99
2018-05-03T10:26:23.145Z,45.83
2018-05-03T10:27:23.154Z,45.92
2018-05-03T10:28:23.162Z,44.17
2018-05-03T10:29:23.172Z,44.54
2018-05-03T10:30:23.179Z,46.74
2018-05-03T10:31:23.185Z,46.17
2018-05-03T10:32:23.195Z,49.43
2018-05-03T10:33:23.199Z,48.49
2018-05-03T10:34:23.210Z,47.53
2018-05-03T10:35:23.215Z,48.79
2018-05-03T10:36:23.262Z,45.52
2018-05-03T10:37:23.226Z,46.48
2018-05-03T10:38:23.235Z,44.77
2018-05-03T10:39:23.242Z,45.06
2018-05-03T10:40:23.250Z,42.37
2018-05-03T10:41:23.257Z,42.18
2018-05-03T10:42:23.264Z,41.12
2018-05-03T10:43:23.271Z,40.93
2018-05-03T10:44:23.279Z,43.62
2018-05-03T10:45:23.285Z,42.76
2018-05-03T10:46:23.293Z,42.10
2018-05-03T10:47:23.299Z,43.23
2018-05-03T10:48:23.308Z,43.71
2018-05-03T10:49:23.313Z,44.48
2018-05-03T10:50:23.321Z,39.89
2018-05-03T10:51:23.328Z,40.45
2018-05-03T10:52:23.340Z,41.72
2018-05-03T10:53:23.341Z,42.60
2018-05-03T10:54:23.349Z,43.20
2018-05-03T10:55:23.357Z,39.14
2018-05-03T10:56:23.366Z,40.58
2018-05-03T10:57:23.376Z,40.68
2018-05-03T10:58:23.382Z,38.26
2018-05-03T10:59:23.390Z,38.74
2018-05-03T11:00:23.398Z,40.06
2018-05-03T11:01:23.405Z,40.16
2018-05-03T11:02:23.412Z,39.87
2018-05-03T11:03:23.419Z,41.70
2018-05-03T11:04:23.427Z,42.27
2018-05-03T11:05:23.468Z,42.49
2018-05-03T11:06:23.447Z,42.20
2018-05-03T11:07:23.449Z,40.95
2018-05-03T11:08:23.456Z,40.08
2018-05-03T11:09:23.462Z,41.43
2018-05-03T11:10:23.469Z,40.64
2018-05-03T11:11:23.476Z,39.01
2018-05-03T11:12:23.484Z,39.78
2018-05-03T11:13:23.488Z,42.58
2018-05-03T11:14:23.496Z,40.58
2018-05-03T11:15:23.503Z,40.41
2018-05-03T11:16:23.512Z,40.03
2018-05-03T11:17:23.519Z,39.74
2018-05-03T11:18:23.528Z,39.86
2018-05-03T11:19:23.537Z,41.39
2018-05-03T11:20:23.552Z,40.84
2018-05-03T11:21:23.556Z,42.28
2018-05-03T11:22:23.565Z,36.79
2018-05-03T11:23:23.576Z,38.24
2018-05-03T11:24:23.590Z,35.25
2018-05-03T11:25:23.596Z,37.16
2018-05-03T11:26:23.607Z,35.52
2018-05-03T11:27:23.618Z,33.87
2018-05-03T11:28:23.628Z,36.07
2018-05-03T11:29:23.640Z,35.95
2018-05-03T11:30:23.646Z,38.04
2018-05-03T11:31:23.715Z,40.06
2018-05-03T11:32:23.664Z,39.99
2018-05-03T11:33:23.672Z,38.93
2018-05-03T11:34:23.680Z,38.74
2018-05-03T11:35:23.691Z,36.62
2018-05-03T11:36:23.696Z,38.45
2018-05-03T11:37:23.704Z,39.79
2018-05-03T11:38:23.710Z,38.35
2018-05-03T11:39:23.717Z,36.24
2018-05-03T11:40:23.725Z,36.15
2018-05-03T11:41:23.730Z,37.59
2018-05-03T11:42:23.737Z,38.74
2018-05-03T11:43:23.746Z,37.59
2018-05-03T11:44:23.751Z,38.16
2018-05-03T11:45:23.756Z,38.07
2018-05-03T11:46:23.765Z,40.76
2018-05-03T11:47:23.768Z,39.24
2018-05-03T11:48:23.775Z,40.30
2018-05-03T11:49:23.781Z,36.85
2018-05-03T11:50:23.791Z,40.51
2018-05-03T11:51:23.799Z,38.20
2018-05-03T11:52:23.803Z,38.78
2018-05-03T11:53:23.808Z,38.01
2018-05-03T11:54:23.815Z,37.91
2018-05-03T11:55:23.823Z,39.14
2018-05-03T11:56:23.831Z,38.93
2018-05-03T11:57:23.839Z,40.95
2018-05-03T11:58:23.843Z,39.70
2018-05-03T11:59:23.965Z,38.45
2018-05-03T12:00:23.859Z,42.10
2018-05-03T12:01:23.861Z,41.83
2018-05-03T12:02:23.900Z,39.81
2018-05-03T12:03:23.875Z,40.89
2018-05-03T12:04:23.882Z,38.89
2018-05-03T12:05:23.889Z,37.26
2018-05-03T12:06:23.896Z,38.12
2018-05-03T12:07:23.906Z,38.41
2018-05-03T12:08:23.911Z,37.43
2018-05-03T12:09:23.917Z,37.62
2018-05-03T12:10:23.924Z,38.49
2018-05-03T12:11:23.931Z,37.34
2018-05-03T12:12:23.939Z,36.76
2018-05-03T12:13:23.946Z,36.76
2018-05-03T12:14:23.956Z,37.62
2018-05-03T12:15:23.961Z,38.31
2018-05-03T12:16:23.968Z,39.76
2018-05-03T12:17:23.975Z,37.91
2018-05-03T12:18:23.982Z,36.07
2018-05-03T12:19:23.989Z,39.64
2018-05-03T12:20:23.996Z,38.01
2018-05-03T12:21:24.001Z,38.29
2018-05-03T12:22:24.009Z,38.22
2018-05-03T12:23:24.016Z,37.06
2018-05-03T12:24:24.076Z,36.11
2018-05-03T12:25:24.028Z,36.11
2018-05-03T12:26:24.035Z,35.44
2018-05-03T12:27:24.047Z,33.73
2018-05-03T12:28:24.051Z,35.67
2018-05-03T12:29:24.058Z,33.45
2018-05-03T12:30:24.066Z,35.85
2018-05-03T12:31:24.074Z,35.19
2018-05-03T12:32:24.083Z,35.77
2018-05-03T12:33:24.091Z,36.85
2018-05-03T12:34:24.098Z,35.02
2018-05-03T12:35:28.208Z,33.97
2018-05-03T12:36:24.118Z,34.84
2018-05-03T12:37:24.124Z,32.81
2018-05-03T12:38:24.133Z,33.02
2018-05-03T12:39:24.143Z,32.64
2018-05-03T12:40:24.153Z,32.26
2018-05-03T12:41:24.161Z,31.48
2018-05-03T12:42:24.171Z,32.24
2018-05-03T12:43:24.181Z,30.61
2018-05-03T12:44:24.190Z,32.91
2018-05-03T12:45:24.200Z,33.20
2018-05-03T12:46:24.208Z,31.37
2018-05-03T12:47:24.218Z,31.27
2018-05-03T12:49:24.236Z,34.21
2018-05-03T12:50:24.244Z,33.61
2018-05-03T12:51:24.255Z,34.09
2018-05-03T12:52:24.261Z,32.94
2018-05-03T12:53:24.268Z,35.36